Stevensville, MD

6:32 PM EST on January 26, 2015 (GMT -0500)
Easton / Newnam | Change Station
CLOSE
Current Station
Airport
Location: Easton,
Elevation: 72 ft
Nearby Weather Stations
Active Advisory: Winter Weather Advisory Active Notice: Public Information Statement

Elev 72 ft 38.80 °N, 76.07 °W | Updated 42 minutes ago

Overcast
Overcast
34 °F
Feels Like 25 °F
N
13
Wind Variable Wind from NNE
Gusts 21 mph

Today
High -- | Low -- °F
--% Chance of Precip.
Yesterday
High -- | Low -- °F
Precip. -- in
7:16 AM 5:19 PM
Waxing Crescent, 48% visible
Pressure 29.72 in
Visibility 10.0 miles
Clouds Overcast 1400 ft
Windchill 25 °F
Dew Point 34 °F
Humidity 100%
Rainfall 0.00 in
Snow Depth Not available.
UV 0 out of 12
Pollen .10 out of 12
Air Quality Not available.
Flu Activity Not available.
METAR KESN 262250Z 02011G18KT 10SM OVC014 01/01 A2972

More Conditions Fewer Conditions

Pressure 29.72 in
Visibility 10.0 miles
Clouds Overcast 1400 ft
Windchill 25 °F
Dew Point 34 °F
Humidity 100%
Rainfall 0.00 in
Snow Depth Not available.
UV 0 out of 12
Pollen .10 out of 12
Air Quality Not available.
Flu Activity Not available.
METAR KESN 262250Z 02011G18KT 10SM OVC014 01/01 A2972

More Conditions Fewer Conditions

Nowcast | as of 5:24 PM EST on January 26, 2015

A broad area of precipitation continues over central and southern Delmarva. Across central Delaware and portions of Queen Annes, and Caroline counties in Maryland, the precipitation is a mix of rain and sleet. South of this line, precipitation is mainly rain, while north of this line, primarily snow is falling. The band of mixed precipitation, and the transition to all snow, should move south into southern Delaware by 9 PM. Once the precipitation does change over to all snow, the precipitation should continue as all snow through the remainder of the event.

×

10-Day Weather Forecast

Almanac

Astronomy

Jan. 26, 2015 Rise Set
Actual Time
Civil Twilight
Nautical Twilight
Astronomical Twilight
Moon
Length of Visible Light
Length of Day
Tomorrow will be .
, % of the Moon is Illuminated

Today's Extremes

State Highs State Lows

Community

WunderPhotos

Upload Photos

1,790,394 photos uploaded!

WunderBlogs® & News

Nearby

Air Quality

  Air Quality AQ Index Pollutant
Not available.

Snow Depth

Station Depth Elevation

Earthquake Activity

City Distance Mag. Time & Date
Minimum magnitude displayed is 2.5.

Coastal Water Temperatures

Place Temperature

Nearby Weather Stations